Airfield :
LOGIN :

Register | Disclaimer

   EN    FR    IT 

 










Legend :    VFR   Marginal VFR   IFR   Intensive IFR   Very Intensive IFR
Visi :
Ceiling :
>= 8 km
>= 3000ft
5 to 8 km
1000 to 3000 ft
1500m to 5 km
500 to 1000 ft
800 to 1500m
200 to 500 ft
< 800m
< 200 ft
Symbols :   Thunderstorms  Fog  Heavy snow  Heavy precipitations  Wind > 20 kt
SIGMETs :     Misc.  Thunderstorms  Icing  Turbulence  Mountain Waves  Volcanic Ashes






- Airport Elevation : 327 ft
- IATA code : BHX


EGBB - Birmingham

CURRENT METAR :
  • 050650Z 30011KT 9999 7000NW -SHRA FEW020 SCT025 BKN030 09/06 Q0996

EXPIRED METARs :
  • 050620Z 29009KT 9999 FEW009 SCT031 BKN044 09/06 Q0995
  • 050550Z 29010KT 8000 -RA FEW014 SCT018 BKN023 09/05 Q0995 RERA
  • 050520Z AUTO 29009KT 9999 BKN023/// 09/05 Q0995
  • 050450Z AUTO 29009KT 260V320 9999 BKN025/// BKN031/// 10/05 Q0995
  • 050420Z AUTO 29011KT 9999 FEW049/// 10/05 Q0995

TAF AMD TAF EGBB
Valid from the 05 at 06:00 until the 06 at 06:00 UTC


050605Z 0506/0606 31012KT 9999 SCT020
PROB30
TEMPO 0506/0508 6000 SHRA BKN014
TEMPO 0509/0521 32019G29KT 6000 SHRA
PROB30
TEMPO 0509/0521 4000 +SHRA BKN014CB
BECMG 0521/0524 25015KT
TEMPO 0600/0606 26018G28KT
ATIS : +44 121 780 0910



MET'MAP, your aeronautical weather chart ! - Copyright ORBIFLY December 2007 - Disclaimer

ORBIFLY MET'MAP TEAM :

Programming & Development : Alexandra Zaïnal
Concept & original design : Baudouin d'Aumeries
Assistance for programming : Marc-Olivier Méhu
Technical & hardware support : Manuel Goepfert

Contact : metmap@orbifly.com




SOURCES & CREDITS :

   NOAA